Terminal Aerodrome Forecast
Issued by NWS Charleston, WV

Current Version | Previous Version | Graphics & Text | Print | Product List | Glossary On
Versions: 1 2 3 4 5 6 7 8 9 10 11 12 13 14 15 16 17 18 19 20 21
213
FTUS41 KRLX 221731
TAFCRW
TAF
KCRW 221731Z 2218/2318 02007KT 4SM SHRA BR OVC008
      TEMPO 2218/2219 2SM SHRA BR
     FM222000 03006KT 6SM -SHRA BR OVC007
     FM222200 04005KT P6SM OVC010
     FM230300 05004KT P6SM OVC020=

USA.gov is the U.S. government's official web portal to all federal, state and local government web resources and services.